Time;durP1;ratioP1;P1;durP2;ratioP2;P2;SDS_P1;SDS_P2;PMS_P1;PMS_P2;Temp;Humidity;BMP_temperature;BMP_pressure;BME280_temperature;BME280_humidity;BME280_pressure;Samples;Min_cycle;Max_cycle;Signal;HPM_P1;HPM_P2
2022/09/14 00:01:36;;;;;;;3.70;3.50;;;21.80;99.90;;;;;;5030091;28;20466;-85
2022/09/14 00:04:09;;;;;;;3.77;3.60;;;21.80;99.90;;;;;;5030759;28;21018;-85
2022/09/14 00:06:38;;;;;;;3.80;3.60;;;21.80;99.90;;;;;;5028189;28;21053;-85
2022/09/14 00:09:06;;;;;;;3.80;3.67;;;21.70;99.90;;;;;;5029979;28;20525;-84
2022/09/14 00:11:35;;;;;;;3.57;3.40;;;21.80;99.90;;;;;;5032075;28;20879;-85
2022/09/14 00:14:05;;;;;;;6.13;3.80;;;21.70;99.90;;;;;;5030072;28;20456;-84
2022/09/14 00:16:35;;;;;;;3.70;3.50;;;21.60;99.90;;;;;;5029770;28;20452;-85
2022/09/14 00:19:13;;;;;;;3.70;3.60;;;21.70;99.90;;;;;;5028596;28;20450;-84
2022/09/14 00:21:41;;;;;;;4.40;4.10;;;21.50;99.90;;;;;;5028933;28;21215;-85
2022/09/14 00:24:11;;;;;;;4.13;3.93;;;21.60;99.90;;;;;;5025922;28;20836;-87
2022/09/14 00:26:39;;;;;;;4.00;3.70;;;21.70;99.90;;;;;;5037599;28;20467;-87
2022/09/14 00:29:07;;;;;;;4.20;4.10;;;21.70;99.90;;;;;;5029576;28;20525;-87
2022/09/14 00:31:38;;;;;;;4.20;3.90;;;21.60;99.90;;;;;;5033630;28;20458;-88
2022/09/14 00:34:09;;;;;;;4.63;4.20;;;21.80;99.90;;;;;;5035381;28;20550;-87
2022/09/14 00:36:40;;;;;;;4.90;4.60;;;21.70;99.90;;;;;;5029020;28;20465;-88
2022/09/14 00:39:09;;;;;;;4.17;3.97;;;21.70;99.90;;;;;;5051442;28;20458;-85
2022/09/14 00:41:40;;;;;;;5.00;4.80;;;21.70;99.90;;;;;;5032639;28;21016;-85
2022/09/14 00:44:47;;;;;;;4.33;4.10;;;21.60;99.90;;;;;;5035421;28;20470;-85
2022/09/14 00:47:17;;;;;;;4.97;4.70;;;21.50;99.90;;;;;;5031104;28;21043;-87
2022/09/14 00:49:47;;;;;;;4.63;4.50;;;21.50;99.90;;;;;;5025887;28;20457;-87
2022/09/14 00:52:19;;;;;;;5.20;5.00;;;21.50;99.90;;;;;;5035116;28;20492;-86
2022/09/14 00:54:50;;;;;;;5.20;5.00;;;21.50;99.90;;;;;;5026728;28;20444;-88
2022/09/14 00:57:19;;;;;;;5.60;5.40;;;21.50;1.00;;;;;;5038001;28;20452;-88
2022/09/14 00:59:49;;;;;;;5.10;5.00;;;21.50;9.10;;;;;;5035636;28;20457;-87
2022/09/14 01:02:20;;;;;;;5.87;5.67;;;21.40;1.00;;;;;;5032796;28;20471;-88
2022/09/14 01:04:50;;;;;;;5.47;5.27;;;21.40;1.00;;;;;;5032435;28;20475;-88
2022/09/14 01:07:30;;;;;;;6.03;5.73;;;21.50;1.00;;;;;;5051899;28;20461;-89
2022/09/14 01:10:09;;;;;;;5.97;5.67;;;21.40;1.00;;;;;;5031594;28;21028;-88
2022/09/14 01:12:47;;;;;;;6.10;5.80;;;21.30;1.00;;;;;;5036396;28;20476;-89
2022/09/14 01:15:22;;;;;;;6.60;6.30;;;21.40;1.00;;;;;;5031788;28;20476;-85
2022/09/14 01:17:58;;;;;;;7.37;7.00;;;21.40;1.00;;;;;;5032940;28;20464;-87
2022/09/14 01:20:32;;;;;;;8.60;8.23;;;21.30;99.90;;;;;;5031192;28;20463;-85
2022/09/14 01:23:09;;;;;;;9.73;9.13;;;20.90;99.90;;;;;;5032356;28;21045;-84
2022/09/14 01:25:52;;;;;;;10.37;9.63;;;20.50;99.90;;;;;;5028977;28;20499;-85
2022/09/14 01:28:27;;;;;;;9.87;9.40;;;20.40;99.90;;;;;;5035889;28;20550;-85
2022/09/14 01:30:58;;;;;;;10.60;9.90;;;20.40;1.00;;;;;;5027688;28;20825;-84
2022/09/14 01:33:32;;;;;;;10.10;9.60;;;20.20;99.90;;;;;;5033972;28;20563;-83
2022/09/14 01:36:03;;;;;;;10.70;10.00;;;20.20;1.00;;;;;;5031831;28;20448;-83
2022/09/14 01:38:35;;;;;;;10.67;10.10;;;20.20;1.00;;;;;;5031007;28;20516;-83
2022/09/14 01:41:08;;;;;;;9.73;9.13;;;20.00;99.90;;;;;;5038348;28;20459;-83
2022/09/14 01:43:40;;;;;;;10.43;9.80;;;20.10;1.00;;;;;;5033448;28;20484;-82
2022/09/14 01:46:12;;;;;;;9.63;9.13;;;20.10;1.00;;;;;;5037058;28;21080;-83
2022/09/14 01:48:46;;;;;;;9.73;9.30;;;20.20;99.90;;;;;;5042630;28;20967;-84
2022/09/14 01:51:19;;;;;;;9.23;8.93;;;20.30;99.90;;;;;;5036061;28;20453;-83
2022/09/14 01:53:49;;;;;;;8.90;8.60;;;20.30;87.10;;;;;;5028181;28;21048;-82
2022/09/14 01:56:22;;;;;;;9.50;9.20;;;20.30;99.90;;;;;;5031916;28;20523;-83
2022/09/14 01:58:57;;;;;;;9.83;9.20;;;20.20;99.90;;;;;;5031816;28;20468;-83
2022/09/14 02:01:28;;;;;;;9.13;8.83;;;20.00;1.00;;;;;;5033700;28;20456;-83
2022/09/14 02:04:00;;;;;;;9.70;9.20;;;20.00;1.00;;;;;;5041745;28;20484;-82
2022/09/14 02:06:33;;;;;;;9.17;8.83;;;19.90;1.00;;;;;;5038832;28;20469;-83
2022/09/14 02:09:02;;;;;;;10.70;10.10;;;19.90;1.00;;;;;;5033715;28;20460;-84
2022/09/14 02:11:31;;;;;;;10.40;9.80;;;19.80;1.00;;;;;;5034548;28;20503;-83
2022/09/14 02:14:00;;;;;;;9.37;9.00;;;19.80;1.00;;;;;;5032444;28;20508;-82
2022/09/14 02:16:28;;;;;;;10.73;10.13;;;19.80;1.00;;;;;;5033153;28;20478;-85
2022/09/14 02:18:58;;;;;;;10.63;10.17;;;19.90;1.00;;;;;;5034069;28;20467;-83
2022/09/14 02:21:28;;;;;;;9.53;9.00;;;19.70;1.00;;;;;;5031048;28;21043;-83
2022/09/14 02:23:56;;;;;;;10.23;9.73;;;19.70;1.00;;;;;;5038021;28;20477;-81
2022/09/14 02:26:25;;;;;;;9.50;9.10;;;19.80;1.00;;;;;;5028411;28;20572;-82
2022/09/14 02:28:54;;;;;;;9.30;9.10;;;19.80;1.00;;;;;;5032772;28;20460;-81
2022/09/14 02:31:33;;;;;;;9.23;8.83;;;19.80;1.00;;;;;;5034139;28;20449;-81
2022/09/14 02:34:09;;;;;;;9.60;9.20;;;19.80;1.00;;;;;;5028655;28;20456;-84
2022/09/14 02:36:47;;;;;;;10.03;9.60;;;19.70;1.00;;;;;;5035187;28;20441;-82
2022/09/14 02:39:25;;;;;;;9.40;9.10;;;19.70;1.00;;;;;;5035564;28;20849;-82
2022/09/14 02:42:03;;;;;;;9.10;8.90;;;19.80;1.00;;;;;;5027611;28;20467;-82
2022/09/14 02:44:39;;;;;;;9.37;8.97;;;19.60;1.00;;;;;;5023580;28;20540;-83
2022/09/14 02:47:15;;;;;;;9.27;8.97;;;19.50;1.00;;;;;;5031478;28;20609;-83
2022/09/14 02:49:50;;;;;;;9.90;9.37;;;19.40;1.00;;;;;;5032075;28;21017;-82
2022/09/14 02:52:25;;;;;;;10.23;9.53;;;19.50;1.00;;;;;;5029702;28;20505;-81
2022/09/14 02:55:01;;;;;;;9.80;9.40;;;19.50;1.00;;;;;;5030304;28;20480;-81
2022/09/14 02:57:29;;;;;;;9.90;9.60;;;19.50;1.00;;;;;;5033915;28;20463;-81
2022/09/14 02:59:57;;;;;;;11.33;10.70;;;19.60;1.00;;;;;;5034376;28;20491;-81
2022/09/14 03:02:26;;;;;;;11.30;10.63;;;19.60;1.00;;;;;;5031751;28;20502;-82
2022/09/14 03:04:55;;;;;;;11.03;10.60;;;19.60;1.00;;;;;;5034525;28;20459;-81
2022/09/14 03:07:23;;;;;;;10.63;10.20;;;19.60;1.00;;;;;;5034414;28;20579;-82
2022/09/14 03:09:51;;;;;;;10.50;10.20;;;19.50;1.00;;;;;;5032010;28;20552;-83
2022/09/14 03:12:19;;;;;;;11.00;10.60;;;19.60;1.00;;;;;;5027122;28;20477;-82
2022/09/14 03:14:47;;;;;;;10.63;10.20;;;19.60;1.00;;;;;;5023895;28;20544;-82
2022/09/14 03:17:15;;;;;;;11.00;10.53;;;19.60;1.00;;;;;;5030198;28;20987;-83
2022/09/14 03:19:45;;;;;;;11.00;10.43;;;19.60;1.00;;;;;;5031222;28;20472;-82
2022/09/14 03:22:13;;;;;;;10.83;10.33;;;19.50;1.00;;;;;;5028397;28;20860;-82
2022/09/14 03:24:41;;;;;;;11.23;10.73;;;19.50;1.00;;;;;;5033367;28;20457;-82
2022/09/14 03:27:09;;;;;;;11.63;11.13;;;19.50;1.00;;;;;;5026750;28;20519;-83
2022/09/14 03:29:37;;;;;;;11.23;10.63;;;19.60;1.00;;;;;;5031666;28;20464;-83
2022/09/14 03:32:06;;;;;;;11.77;11.03;;;19.40;1.00;;;;;;5029936;28;20987;-83
2022/09/14 03:34:34;;;;;;;11.67;11.17;;;19.50;1.00;;;;;;5031427;28;20491;-83
2022/09/14 03:37:03;;;;;;;11.47;10.97;;;19.40;1.00;;;;;;5032562;28;20495;-82
2022/09/14 03:39:31;;;;;;;11.77;11.27;;;19.50;1.00;;;;;;5031740;28;20505;-84
2022/09/14 03:41:59;;;;;;;11.10;10.70;;;19.60;1.00;;;;;;5026200;28;20498;-83
2022/09/14 03:44:27;;;;;;;10.97;10.57;;;19.50;1.00;;;;;;5029840;28;20898;-82
2022/09/14 03:46:55;;;;;;;11.07;10.70;;;19.50;1.00;;;;;;5036612;28;20563;-83
2022/09/14 03:49:25;;;;;;;11.57;11.17;;;19.40;1.00;;;;;;5032294;28;20528;-83
2022/09/14 03:51:53;;;;;;;11.33;10.97;;;19.30;1.00;;;;;;5030556;28;20455;-82
2022/09/14 03:54:28;;;;;;;11.13;10.70;;;19.50;1.00;;;;;;5031429;28;20464;-82
2022/09/14 03:56:56;;;;;;;11.23;10.83;;;19.50;1.00;;;;;;5030927;28;20484;-84
2022/09/14 03:59:24;;;;;;;10.50;10.20;;;19.40;1.00;;;;;;5029019;28;20531;-83
2022/09/14 04:01:52;;;;;;;11.20;10.80;;;19.40;1.00;;;;;;5027263;28;20481;-84
2022/09/14 04:04:20;;;;;;;11.60;11.10;;;19.30;1.00;;;;;;5034290;28;20870;-81
2022/09/14 04:06:48;;;;;;;10.73;10.33;;;19.40;1.00;;;;;;5025753;28;20574;-82
2022/09/14 04:09:18;;;;;;;10.93;10.63;;;19.50;1.00;;;;;;5026445;28;20917;-84
2022/09/14 04:11:47;;;;;;;11.40;10.70;;;19.50;1.00;;;;;;5032864;28;20978;-82
2022/09/14 04:14:16;;;;;;;11.80;11.40;;;19.50;1.00;;;;;;5026527;28;20448;-83
2022/09/14 04:16:45;;;;;;;12.17;11.67;;;19.50;1.00;;;;;;5025252;28;21137;-81
2022/09/14 04:19:13;;;;;;;11.90;11.40;;;19.50;1.00;;;;;;5024416;28;21511;-81
2022/09/14 04:21:41;;;;;;;11.83;11.40;;;19.60;1.00;;;;;;5025452;28;20664;-82
2022/09/14 04:24:12;;;;;;;11.93;11.53;;;19.70;1.00;;;;;;5027650;28;20546;-84
2022/09/14 04:26:43;;;;;;;12.30;11.90;;;19.70;1.00;;;;;;5029579;28;20476;-82
2022/09/14 04:29:13;;;;;;;11.93;11.47;;;19.70;1.00;;;;;;5028126;28;20444;-82
2022/09/14 04:31:42;;;;;;;12.40;12.00;;;19.70;1.00;;;;;;5025674;28;20448;-80
2022/09/14 04:34:12;;;;;;;13.73;13.13;;;19.70;1.00;;;;;;5026301;28;20960;-85
2022/09/14 04:36:41;;;;;;;13.23;12.53;;;19.70;1.00;;;;;;5022377;28;20452;-73
2022/09/14 04:39:12;;;;;;;13.60;12.80;;;19.80;1.00;;;;;;5021996;28;20478;-78
2022/09/14 04:41:41;;;;;;;14.87;13.87;;;19.90;1.00;;;;;;5025443;28;20561;-78
2022/09/14 04:44:09;;;;;;;12.90;12.50;;;19.90;1.00;;;;;;5025927;28;20846;-79
2022/09/14 04:46:40;;;;;;;13.70;13.30;;;19.80;1.00;;;;;;5023384;28;20538;-77
2022/09/14 04:49:13;;;;;;;14.20;13.60;;;19.70;1.00;;;;;;5020279;28;20454;-78
2022/09/14 04:51:41;;;;;;;15.07;14.47;;;19.70;1.00;;;;;;5021078;28;20508;-78
2022/09/14 04:54:13;;;;;;;14.60;13.90;;;19.80;1.00;;;;;;5022214;28;20468;-78
2022/09/14 04:56:41;;;;;;;14.30;13.70;;;19.90;1.00;;;;;;5022597;28;20543;-79
2022/09/14 04:59:10;;;;;;;14.63;14.10;;;19.70;1.00;;;;;;5023495;28;20900;-79
2022/09/14 05:01:41;;;;;;;14.30;13.90;;;19.80;1.00;;;;;;5024250;28;20459;-79
2022/09/14 05:04:10;;;;;;;16.77;15.87;;;19.80;1.00;;;;;;5029223;28;20464;-79
2022/09/14 05:06:40;;;;;;;15.80;15.10;;;19.80;1.00;;;;;;5026308;28;20510;-79
2022/09/14 05:09:12;;;;;;;16.10;15.60;;;19.90;1.00;;;;;;5023671;28;20931;-78
2022/09/14 05:11:41;;;;;;;16.47;15.80;;;19.90;1.00;;;;;;5026647;28;20499;-79
2022/09/14 05:14:11;;;;;;;17.30;16.70;;;19.90;1.00;;;;;;5021747;28;20542;-79
2022/09/14 05:16:42;;;;;;;17.03;16.23;;;20.00;1.00;;;;;;5020240;28;20484;-80
2022/09/14 05:19:14;;;;;;;17.20;16.60;;;20.00;1.00;;;;;;5022624;28;20522;-79
2022/09/14 05:21:42;;;;;;;16.83;16.13;;;19.90;1.00;;;;;;5023786;28;20534;-79
2022/09/14 05:24:13;;;;;;;17.10;16.50;;;20.00;1.00;;;;;;5026448;28;20476;-80
2022/09/14 05:26:42;;;;;;;18.30;17.20;;;20.00;1.00;;;;;;5019052;28;20538;-78
2022/09/14 05:29:12;;;;;;;18.43;17.63;;;19.90;1.00;;;;;;5034307;28;20597;-80
2022/09/14 05:31:42;;;;;;;19.63;18.13;;;19.90;1.00;;;;;;5026981;28;21102;-79
2022/09/14 05:34:11;;;;;;;17.83;17.20;;;19.90;1.00;;;;;;5026679;28;20482;-79
2022/09/14 05:36:40;;;;;;;18.20;17.40;;;19.90;1.00;;;;;;5026032;28;20460;-79
2022/09/14 05:39:09;;;;;;;18.43;17.47;;;19.90;1.00;;;;;;5028750;28;20558;-78
2022/09/14 05:41:37;;;;;;;17.00;16.33;;;20.00;1.00;;;;;;5026861;28;20503;-80
2022/09/14 05:44:06;;;;;;;18.10;17.20;;;20.00;1.00;;;;;;5029045;28;20453;-79
2022/09/14 05:46:34;;;;;;;17.93;17.23;;;20.10;1.00;;;;;;5025380;28;20661;-81
2022/09/14 05:49:04;;;;;;;18.70;17.90;;;20.10;1.00;;;;;;5026464;28;20495;-80
2022/09/14 05:51:32;;;;;;;18.57;17.70;;;20.20;1.00;;;;;;5026412;28;21111;-80
2022/09/14 05:54:00;;;;;;;18.03;17.43;;;20.20;1.00;;;;;;5024986;28;20504;-80
2022/09/14 05:56:30;;;;;;;17.93;16.93;;;20.20;1.00;;;;;;5026925;28;20502;-81
2022/09/14 05:58:59;;;;;;;17.67;17.07;;;20.20;1.00;;;;;;5025764;28;20448;-80
2022/09/14 06:01:29;;;;;;;17.70;17.00;;;20.20;1.00;;;;;;5028147;28;20872;-79
2022/09/14 06:04:01;;;;;;;18.10;17.40;;;20.20;1.00;;;;;;5024725;28;20494;-80
2022/09/14 06:06:32;;;;;;;18.07;17.43;;;20.30;1.00;;;;;;5025885;28;20506;-80
2022/09/14 06:09:00;;;;;;;17.30;16.60;;;20.20;1.00;;;;;;5026295;28;20809;-79
2022/09/14 06:11:31;;;;;;;17.83;17.13;;;20.20;1.00;;;;;;5024221;28;20516;-79
2022/09/14 06:14:00;;;;;;;17.80;17.10;;;20.30;1.00;;;;;;5023477;28;20575;-80
2022/09/14 06:16:29;;;;;;;18.43;17.83;;;20.40;1.00;;;;;;5025990;28;20689;-79
2022/09/14 06:18:59;;;;;;;18.50;17.80;;;20.40;1.00;;;;;;5019036;28;20525;-79
2022/09/14 06:21:31;;;;;;;18.50;17.80;;;20.40;1.00;;;;;;5024940;28;20488;-79
2022/09/14 06:23:59;;;;;;;18.90;18.00;;;20.40;1.00;;;;;;5020195;28;20511;-79
2022/09/14 06:26:27;;;;;;;18.50;17.63;;;20.40;1.00;;;;;;5026620;28;20457;-80
2022/09/14 06:28:55;;;;;;;17.77;17.10;;;20.40;1.00;;;;;;5027750;28;20495;-80
2022/09/14 06:31:24;;;;;;;18.00;17.40;;;20.40;1.00;;;;;;5025946;28;20835;-80
2022/09/14 06:33:52;;;;;;;18.43;17.47;;;20.50;1.00;;;;;;5026764;28;20998;-80
2022/09/14 06:36:23;;;;;;;18.70;17.90;;;20.40;1.00;;;;;;5023922;28;20449;-80
2022/09/14 06:38:53;;;;;;;18.10;17.40;;;20.40;1.00;;;;;;5022748;28;20444;-80
2022/09/14 06:41:25;;;;;;;18.70;18.00;;;20.50;1.00;;;;;;5022280;28;20468;-79
2022/09/14 06:43:55;;;;;;;19.23;18.33;;;20.50;1.00;;;;;;5022986;28;20500;-80
2022/09/14 06:46:25;;;;;;;19.10;18.40;;;20.50;1.00;;;;;;5028972;28;20454;-79
2022/09/14 06:48:56;;;;;;;19.43;18.63;;;20.60;1.00;;;;;;5023989;28;20555;-79
2022/09/14 06:51:26;;;;;;;19.53;18.77;;;20.60;1.00;;;;;;5030183;28;20544;-81
2022/09/14 06:53:58;;;;;;;20.10;19.40;;;20.60;1.00;;;;;;5031629;28;20479;-79
2022/09/14 06:56:26;;;;;;;20.10;19.27;;;20.70;1.00;;;;;;5036613;28;20457;-80
2022/09/14 06:58:55;;;;;;;20.13;19.37;;;20.70;1.00;;;;;;5021347;28;21076;-80
2022/09/14 07:01:24;;;;;;;20.23;19.43;;;20.70;1.00;;;;;;5035500;28;20496;-80
2022/09/14 07:03:53;;;;;;;19.80;19.13;;;20.80;1.00;;;;;;5028652;28;20545;-80
2022/09/14 07:06:22;;;;;;;20.50;19.60;;;20.80;1.00;;;;;;5037261;28;20982;-79
2022/09/14 07:08:51;;;;;;;23.10;22.10;;;20.80;1.00;;;;;;5027198;28;20899;-80
2022/09/14 07:11:24;;;;;;;21.30;20.40;;;20.80;1.00;;;;;;5035130;28;20556;-79
2022/09/14 07:13:54;;;;;;;20.63;20.03;;;20.90;1.00;;;;;;5024685;28;20482;-79
2022/09/14 07:16:23;;;;;;;21.57;20.77;;;20.90;1.00;;;;;;5031222;28;21017;-80
2022/09/14 07:18:53;;;;;;;22.17;21.17;;;21.00;1.00;;;;;;5030161;28;20480;-80
2022/09/14 07:21:22;;;;;;;21.40;20.70;;;21.00;1.00;;;;;;5029711;28;20553;-80
2022/09/14 07:23:51;;;;;;;22.50;21.50;;;20.90;1.00;;;;;;5027755;28;20470;-79
2022/09/14 07:26:22;;;;;;;22.20;21.30;;;21.00;1.00;;;;;;5031000;28;21184;-79
2022/09/14 07:28:52;;;;;;;22.20;21.40;;;21.10;1.00;;;;;;5021570;28;20516;-80
2022/09/14 07:31:23;;;;;;;22.00;21.10;;;21.00;1.00;;;;;;5028401;28;20521;-79
2022/09/14 07:33:53;;;;;;;21.30;20.50;;;21.10;1.00;;;;;;5030863;28;20476;-80
2022/09/14 07:36:22;;;;;;;22.60;21.70;;;21.20;1.00;;;;;;5031947;28;20567;-79
2022/09/14 07:38:51;;;;;;;22.07;21.17;;;21.20;1.00;;;;;;5024432;28;20970;-81
2022/09/14 07:41:24;;;;;;;22.53;21.43;;;21.30;1.00;;;;;;5033957;28;20474;-79
2022/09/14 07:43:55;;;;;;;21.43;20.63;;;21.50;1.00;;;;;;5024654;28;20482;-79
2022/09/14 07:46:24;;;;;;;22.23;21.33;;;21.60;1.00;;;;;;5031133;28;20459;-80
2022/09/14 07:48:55;;;;;;;22.63;21.43;;;21.60;1.00;;;;;;5023681;28;20509;-79
2022/09/14 07:51:23;;;;;;;23.70;22.60;;;21.70;1.00;;;;;;5019708;28;20462;-79
2022/09/14 07:53:52;;;;;;;22.50;21.60;;;21.80;1.00;;;;;;5025350;28;20468;-79
2022/09/14 07:56:21;;;;;;;22.70;21.80;;;21.90;1.00;;;;;;5029354;28;20511;-79
2022/09/14 07:58:55;;;;;;;22.77;21.77;;;21.70;1.00;;;;;;5026698;28;20467;-80
2022/09/14 08:01:44;;;;;;;23.10;22.10;;;21.60;1.00;;;;;;5029544;28;20466;-80
2022/09/14 08:04:12;;;;;;;22.20;21.30;;;21.80;1.00;;;;;;5028066;28;20453;-80
2022/09/14 08:06:41;;;;;;;23.80;22.50;;;22.00;1.00;;;;;;5029961;28;20457;-80
2022/09/14 08:09:09;;;;;;;22.53;21.60;;;22.10;1.00;;;;;;5029638;28;20514;-80
2022/09/14 08:11:39;;;;;;;22.50;21.60;;;22.10;1.00;;;;;;5026361;28;20466;-79
2022/09/14 08:14:10;;;;;;;22.47;21.63;;;22.30;1.00;;;;;;5020728;28;20488;-80
2022/09/14 08:16:39;;;;;;;23.20;22.20;;;22.30;1.00;;;;;;5029997;28;20463;-80
2022/09/14 08:19:12;;;;;;;22.50;21.60;;;22.30;1.00;;;;;;5024830;28;20460;-79
2022/09/14 08:21:40;;;;;;;24.43;22.53;;;22.10;1.00;;;;;;5026882;28;20455;-79
2022/09/14 08:24:15;;;;;;;23.67;22.37;;;22.30;1.00;;;;;;5026953;28;20460;-80
2022/09/14 08:26:46;;;;;;;23.80;22.60;;;22.40;1.00;;;;;;5027838;28;20451;-80
2022/09/14 08:29:15;;;;;;;23.10;22.23;;;22.30;1.00;;;;;;5030512;28;20493;-79
2022/09/14 08:31:45;;;;;;;23.77;22.77;;;22.30;1.00;;;;;;5030004;28;20906;-80
2022/09/14 08:34:16;;;;;;;22.93;21.80;;;22.30;99.90;;;;;;5027507;28;20463;-80
2022/09/14 08:36:46;;;;;;;22.57;21.57;;;22.20;99.90;;;;;;5024770;28;20488;-79
2022/09/14 08:39:15;;;;;;;22.40;21.60;;;22.10;99.90;;;;;;5024218;28;20940;-79
2022/09/14 08:41:50;;;;;;;22.70;21.70;;;22.00;99.90;;;;;;5026877;28;20466;-81
2022/09/14 08:44:24;;;;;;;22.10;21.20;;;22.10;99.90;;;;;;5026006;28;21158;-80
2022/09/14 08:46:58;;;;;;;23.53;22.33;;;22.10;99.90;;;;;;5026567;28;20461;-80
2022/09/14 08:49:39;;;;;;;23.03;22.03;;;22.30;99.90;;;;;;5027685;28;20533;-79
2022/09/14 08:52:13;;;;;;;22.60;21.80;;;22.40;99.90;;;;;;5026727;28;20541;-80
2022/09/14 08:54:41;;;;;;;22.30;21.50;;;22.50;99.90;;;;;;5023655;28;20464;-80
2022/09/14 08:57:17;;;;;;;23.17;22.23;;;22.60;99.90;;;;;;5028769;28;21030;-79
2022/09/14 08:59:56;;;;;;;22.90;22.00;;;22.70;1.00;;;;;;5029209;28;20448;-79
2022/09/14 09:02:50;;;;;;;22.53;21.77;;;22.80;71.60;;;;;;5029856;28;21014;-81
2022/09/14 09:05:28;;;;;;;24.13;22.93;;;23.00;1.00;;;;;;5032421;28;20451;-80
2022/09/14 09:08:03;;;;;;;23.57;22.47;;;23.10;1.00;;;;;;5028272;28;20455;-80
2022/09/14 09:10:33;;;;;;;22.93;22.03;;;23.20;99.90;;;;;;5034534;28;20452;-79
2022/09/14 09:13:06;;;;;;;23.57;22.57;;;23.10;99.90;;;;;;5031889;28;20522;-79
2022/09/14 09:15:39;;;;;;;23.60;22.70;;;23.30;1.00;;;;;;5031461;28;20455;-81
2022/09/14 09:18:11;;;;;;;23.23;22.40;;;23.30;99.90;;;;;;5033883;28;20563;-79
2022/09/14 09:20:44;;;;;;;23.40;22.50;;;23.30;1.00;;;;;;5030079;28;20487;-79
2022/09/14 09:23:15;;;;;;;22.70;21.83;;;23.50;1.00;;;;;;5030658;28;20505;-80
2022/09/14 09:25:57;;;;;;;23.10;22.30;;;23.70;99.90;;;;;;5029518;28;20463;-80
2022/09/14 09:28:29;;;;;;;22.33;21.53;;;23.80;22.30;;;;;;5030665;28;20978;-79
2022/09/14 09:31:03;;;;;;;23.63;22.73;;;24.00;99.90;;;;;;5024960;28;20510;-80
2022/09/14 09:33:32;;;;;;;22.90;21.97;;;24.00;99.90;;;;;;5025263;28;20534;-80
2022/09/14 09:36:01;;;;;;;24.60;23.70;;;24.20;99.90;;;;;;5028851;28;20456;-81
2022/09/14 09:38:30;;;;;;;25.13;24.00;;;24.20;99.90;;;;;;5030641;28;20502;-81
2022/09/14 09:41:05;;;;;;;23.10;22.20;;;24.60;37.60;;;;;;5029827;28;20496;-81
2022/09/14 09:43:35;;;;;;;23.00;22.20;;;24.70;1.00;;;;;;5027235;28;20582;-81
2022/09/14 09:46:17;;;;;;;22.90;22.10;;;24.80;1.00;;;;;;5028477;28;20455;-81
2022/09/14 09:48:47;;;;;;;23.27;22.40;;;24.90;99.90;;;;;;5025501;28;21045;-81
2022/09/14 09:51:25;;;;;;;23.00;22.13;;;25.10;1.00;;;;;;5025535;28;20488;-81
2022/09/14 09:53:55;;;;;;;23.10;22.30;;;24.90;1.00;;;;;;5028251;28;20491;-80
2022/09/14 09:56:26;;;;;;;23.37;22.30;;;25.20;1.00;;;;;;5028070;28;20456;-80
2022/09/14 09:58:55;;;;;;;22.63;21.63;;;25.20;99.90;;;;;;5026879;28;20445;-81
2022/09/14 10:01:28;;;;;;;23.17;22.17;;;25.20;99.90;;;;;;5033119;28;20555;-81
2022/09/14 10:04:15;;;;;;;23.77;22.63;;;25.00;99.90;;;;;;5025002;28;20476;-81
2022/09/14 10:06:46;;;;;;;23.10;22.20;;;25.00;99.90;;;;;;5042064;28;20457;-80
2022/09/14 10:09:17;;;;;;;22.03;21.33;;;25.00;99.90;;;;;;5031001;28;21075;-80
2022/09/14 10:11:46;;;;;;;22.73;21.83;;;25.00;99.90;;;;;;5030090;28;20452;-80
2022/09/14 10:14:25;;;;;;;21.93;21.10;;;25.00;99.90;;;;;;5027204;28;20551;-81
2022/09/14 10:17:04;;;;;;;22.20;21.20;;;25.10;66.80;;;;;;5026294;28;20507;-81
2022/09/14 10:19:33;;;;;;;21.80;21.00;;;24.90;99.90;;;;;;5026908;28;20494;-81
2022/09/14 10:22:05;;;;;;;21.70;20.90;;;24.90;99.90;;;;;;5028516;28;20479;-82
2022/09/14 10:24:35;;;;;;;20.93;20.23;;;24.90;99.90;;;;;;5027577;28;21113;-81
2022/09/14 10:27:34;;;;;;;20.80;20.10;;;24.90;99.90;;;;;;5022504;28;20547;-81
2022/09/14 10:30:13;;;;;;;21.53;20.73;;;24.90;99.90;;;;;;5024360;28;20480;-81
2022/09/14 10:32:45;;;;;;;21.20;20.40;;;24.90;99.90;;;;;;5034471;28;20508;-80
2022/09/14 10:35:16;;;;;;;21.80;21.10;;;24.80;99.90;;;;;;5031442;28;20539;-80
2022/09/14 10:38:03;;;;;;;21.90;21.10;;;24.80;99.90;;;;;;5029196;28;20547;-81
2022/09/14 10:40:37;;;;;;;21.03;20.30;;;24.70;99.90;;;;;;5035681;28;20535;-80
2022/09/14 10:43:16;;;;;;;20.93;20.33;;;24.60;99.90;;;;;;5032441;28;21001;-81
2022/09/14 10:45:51;;;;;;;20.17;19.50;;;24.60;99.90;;;;;;5028598;28;20466;-81
2022/09/14 10:49:09;;;;;;;20.53;19.87;;;24.50;99.90;;;;;;5027894;28;20463;-81
2022/09/14 10:51:51;;;;;;;20.63;19.90;;;24.50;99.90;;;;;;5027505;28;20608;-81
2022/09/14 10:54:42;;;;;;;19.70;19.10;;;24.60;99.90;;;;;;5027816;28;20543;-81
2022/09/14 10:57:19;;;;;;;19.80;19.10;;;24.70;99.90;;;;;;5026698;28;20509;-81
2022/09/14 10:59:53;;;;;;;20.17;19.47;;;24.70;99.90;;;;;;5027064;28;20536;-79
2022/09/14 11:03:01;;;;;;;20.20;19.53;;;24.80;99.90;;;;;;5028996;28;20480;-82
2022/09/14 11:05:34;;;;;;;20.73;19.80;;;24.80;99.90;;;;;;5009180;28;20907;-81
2022/09/14 11:08:11;;;;;;;20.63;19.63;;;24.90;88.60;;;;;;5029146;28;20449;-81
2022/09/14 11:10:50;;;;;;;18.90;18.07;;;25.10;1.00;;;;;;5028008;28;20486;-82
2022/09/14 11:13:42;;;;;;;14.60;13.90;;;25.30;1.00;;;;;;5025777;28;20483;-82
2022/09/14 11:16:24;;;;;;;13.70;13.17;;;25.40;1.00;;;;;;5039646;28;20461;-81
2022/09/14 11:19:02;;;;;;;11.90;11.40;;;25.40;1.00;;;;;;5021433;28;20452;-81
2022/09/14 11:21:43;;;;;;;11.47;11.10;;;25.30;1.00;;;;;;5028471;28;20467;-81
2022/09/14 11:24:21;;;;;;;11.40;11.00;;;25.30;1.00;;;;;;5030131;28;20455;-81
2022/09/14 11:26:59;;;;;;;10.83;10.43;;;25.30;1.00;;;;;;5028680;28;21082;-82
2022/09/14 11:29:31;;;;;;;11.53;10.87;;;25.30;99.90;;;;;;5028476;28;20471;-82
2022/09/14 11:32:05;;;;;;;10.10;9.80;;;25.30;99.90;;;;;;5027728;28;20479;-81
2022/09/14 11:34:56;;;;;;;10.20;9.80;;;25.40;99.90;;;;;;5029624;28;20485;-81
2022/09/14 11:37:32;;;;;;;10.43;10.03;;;25.40;99.90;;;;;;5017724;28;20900;-81
2022/09/14 11:40:06;;;;;;;10.20;9.73;;;25.30;99.90;;;;;;5021994;28;20963;-81
2022/09/14 11:42:42;;;;;;;10.37;10.07;;;25.30;99.90;;;;;;5027913;28;20821;-80
2022/09/14 11:45:18;;;;;;;10.30;10.00;;;25.30;99.90;;;;;;5031418;28;20455;-81
2022/09/14 11:47:55;;;;;;;9.87;9.50;;;25.20;99.90;;;;;;5027154;28;20535;-81
2022/09/14 11:50:28;;;;;;;11.73;10.13;;;25.00;99.90;;;;;;5026377;28;20677;-81
2022/09/14 11:53:04;;;;;;;9.20;8.93;;;24.90;99.90;;;;;;5020264;28;21008;-80
2022/09/14 11:55:33;;;;;;;10.13;9.63;;;24.80;1.00;;;;;;5032628;28;20502;-80
2022/09/14 11:58:06;;;;;;;10.37;9.87;;;24.80;1.00;;;;;;5033733;28;20452;-81
2022/09/14 12:00:59;;;;;;;10.83;10.43;;;24.70;1.00;;;;;;5030864;28;20456;-79
2022/09/14 12:03:53;;;;;;;10.20;9.80;;;24.70;1.00;;;;;;5024008;28;20488;-81
2022/09/14 12:06:59;;;;;;;9.80;9.50;;;24.60;1.00;;;;;;5031459;28;20455;-81
2022/09/14 12:09:44;;;;;;;10.13;9.50;;;24.50;1.00;;;;;;5025815;28;20804;-81
2022/09/14 12:12:34;;;;;;;9.87;9.40;;;24.50;1.00;;;;;;5025732;28;20487;-81
2022/09/14 12:15:23;;;;;;;9.50;9.10;;;24.50;1.00;;;;;;5024505;28;20542;-80
2022/09/14 12:17:54;;;;;;;9.93;9.37;;;24.50;1.00;;;;;;5020144;28;20555;-82
2022/09/14 12:20:51;;;;;;;9.90;9.40;;;24.50;1.00;;;;;;5029905;28;20976;-81
2022/09/14 12:23:42;;;;;;;11.47;10.90;;;24.50;1.00;;;;;;5027886;28;20479;-81
2022/09/14 12:26:31;;;;;;;10.60;10.10;;;24.40;1.00;;;;;;5028513;28;20552;-80
2022/09/14 12:29:32;;;;;;;10.90;10.53;;;24.20;10.50;;;;;;5047621;28;20461;-80
2022/09/14 12:32:39;;;;;;;13.00;12.00;;;24.00;99.90;;;;;;5034069;28;20476;-81
2022/09/14 12:35:45;;;;;;;12.00;11.53;;;23.80;99.90;;;;;;5029421;28;20784;-80
2022/09/14 12:38:41;;;;;;;12.70;12.00;;;23.60;99.90;;;;;;5031535;28;20466;-80
2022/09/14 12:41:43;;;;;;;12.87;11.97;;;23.50;99.90;;;;;;5029773;28;20574;-82
2022/09/14 12:44:33;;;;;;;13.23;12.63;;;23.30;40.00;;;;;;5006003;28;20456;-81
2022/09/14 12:47:39;;;;;;;13.77;13.07;;;23.30;1.00;;;;;;5035947;28;20456;-81
2022/09/14 12:50:15;;;;;;;14.00;13.43;;;23.10;99.90;;;;;;5017841;28;20463;-82
2022/09/14 12:52:56;;;;;;;13.93;13.43;;;22.90;92.80;;;;;;5032652;28;20540;-81
2022/09/14 12:55:47;;;;;;;15.10;14.30;;;22.90;99.90;;;;;;5035473;28;20456;-81
2022/09/14 12:58:40;;;;;;;15.60;14.80;;;22.80;99.90;;;;;;5035444;28;20468;-82
2022/09/14 13:01:23;;;;;;;15.37;14.83;;;22.70;1.00;;;;;;5029725;28;20462;-81
2022/09/14 13:03:54;;;;;;;16.00;15.20;;;22.80;1.00;;;;;;5028390;28;20875;-81
2022/09/14 13:06:27;;;;;;;14.53;14.07;;;22.70;1.00;;;;;;5027383;28;20886;-82
2022/09/14 13:08:58;;;;;;;14.97;14.47;;;22.60;1.00;;;;;;5027052;28;20467;-82
2022/09/14 13:11:32;;;;;;;15.27;14.50;;;22.50;1.00;;;;;;5028975;28;20472;-82